This is the latest recevied weather packets stored in our database for station/object WW1TA. If no packets are shown the sender has not sent any weather packets the latest 10 day(s).
| Time | Temp. | Humidity | Pressure | Rain* | Wind** | Luminosity | Snow |
|---|---|---|---|---|---|---|---|
| 1777730174 | 15° C | 99% | 1013.6 hPa | 6.1 mm | - | 24 W/m² | - |
| 1777729871 | 15° C | 99% | 1013.3 hPa | 6.1 mm | - | 32 W/m² | - |
| 1777729568 | 15° C | 99% | 1013.2 hPa | 3.56 mm | - | 23 W/m² | - |
| 1777729264 | 15° C | 99% | 1012.8 hPa | 2.29 mm | - | 29 W/m² | - |
| 1777728961 | 15° C | 99% | 1012.2 hPa | 3.56 mm | - | 39 W/m² | - |
| 1777728658 | 15.56° C | 99% | 1012.5 hPa | 4.32 mm | - | 59 W/m² | - |
| 1777728355 | 15.56° C | 99% | 1012.8 hPa | 3.05 mm | - | 29 W/m² | - |
| 1777728052 | 15.56° C | 99% | 1012.8 hPa | 3.56 mm | - | 33 W/m² | - |
| 1777727749 | 15.56° C | 99% | 1013 hPa | 3.05 mm | - | 23 W/m² | - |
| 1777727446 | 15.56° C | 99% | 1013 hPa | 2.29 mm | - | 16 W/m² | - |
| 1777727143 | 15.56° C | 99% | 1012.8 hPa | 3.05 mm | - | 9 W/m² | - |
| 1777726841 | 16.11° C | 99% | 1012.8 hPa | 5.33 mm | - | 13 W/m² | - |
| 1777726537 | 16.11° C | 99% | 1012.2 hPa | 4.83 mm | - | 24 W/m² | - |
| 1777726234 | 16.11° C | 99% | 1013.3 hPa | 1.78 mm | - | 9 W/m² | - |
| 1777725931 | 16.11° C | 99% | 1012.6 hPa | 1.78 mm | - | 10 W/m² | - |
| 1777725628 | 16.11° C | 99% | 1012.3 hPa | 4.32 mm | - | 18 W/m² | - |
| 1777725326 | 16.11° C | 99% | 1012.5 hPa | 3.56 mm | - | 22 W/m² | - |
| 1777725023 | 16.11° C | 99% | 1012.3 hPa | 1.27 mm | - | 17 W/m² | - |
| 1777724719 | 16.11° C | 99% | 1012.4 hPa | 0.51 mm | - | 11 W/m² | - |
| 1777724417 | 16.11° C | 99% | 1012.2 hPa | 0.51 mm | - | 28 W/m² | - |
| 1777724114 | 16.11° C | 99% | 1012.1 hPa | 1.27 mm | - | 46 W/m² | - |
| 1777723811 | 16.11° C | 99% | 1012.2 hPa | 1.27 mm | - | 44 W/m² | - |
| 1777723508 | 16.11° C | 99% | 1011.8 hPa | 0.51 mm | - | 26 W/m² | - |
| 1777722598 | 16.11° C | 99% | 1011.8 hPa | 0 mm | - | 34 W/m² | - |
| 1777721992 | 16.11° C | 99% | 1011.6 hPa | 0 mm | - | 15 W/m² | - |
* Rain latest hour (hover to see other rain measurements)
** Current wind speed in m/s (hover to see current wind gust speed)